createdAt,value
2017-01-10T00:00:16.573Z,60.79
2017-01-10T00:00:57.115Z,60.5
2017-01-10T00:01:37.662Z,61.08
2017-01-10T00:02:18.171Z,60.89
2017-01-10T00:02:58.699Z,60.98
2017-01-10T00:03:39.203Z,60.7
2017-01-10T00:04:19.755Z,60.89
2017-01-10T00:05:00.251Z,60.89
2017-01-10T00:05:40.814Z,60.7
2017-01-10T00:06:21.345Z,60.98
2017-01-10T00:07:01.897Z,60.79
2017-01-10T00:07:42.408Z,61.17
2017-01-10T00:08:22.952Z,60.98
2017-01-10T00:09:03.438Z,61.08
2017-01-10T00:09:44.126Z,60.98
2017-01-10T00:10:24.756Z,61.46
2017-01-10T00:11:05.292Z,61.74
2017-01-10T00:11:45.828Z,61.83
2017-01-10T00:12:26.385Z,61.65
2017-01-10T00:13:07.179Z,61.74
2017-01-10T00:13:47.738Z,61.83
2017-01-10T00:14:28.247Z,61.83
2017-01-10T00:15:08.823Z,61.93
2017-01-10T00:15:49.364Z,61.93
2017-01-10T00:16:29.947Z,61.46
2017-01-10T00:17:10.410Z,60.98
2017-01-10T00:17:50.957Z,61.46
2017-01-10T00:18:31.450Z,61.46
2017-01-10T00:19:12.019Z,61.08
2017-01-10T00:19:52.651Z,60.89
2017-01-10T00:20:33.197Z,60.98
2017-01-10T00:21:13.725Z,61.08
2017-01-10T00:21:54.247Z,61.74
2017-01-10T00:22:34.748Z,61.65
2017-01-10T00:23:15.361Z,61.46
2017-01-10T00:23:55.861Z,61.17
2017-01-10T00:24:36.405Z,61.55
2017-01-10T00:25:17.069Z,61.55
2017-01-10T00:25:57.825Z,61.65
2017-01-10T00:26:38.553Z,61.17
2017-01-10T00:27:19.025Z,61.17
2017-01-10T00:27:59.563Z,61.08
2017-01-10T00:28:40.072Z,61.08
2017-01-10T00:29:20.637Z,61.08
2017-01-10T00:30:01.136Z,61.55
2017-01-10T00:30:41.622Z,61.46
2017-01-10T00:31:22.210Z,61.65
2017-01-10T00:32:02.727Z,61.83
2017-01-10T00:32:43.323Z,61.93
2017-01-10T00:33:23.859Z,61.83
2017-01-10T00:34:04.390Z,61.74
2017-01-10T00:34:44.926Z,61.46
2017-01-10T00:35:25.459Z,61.17
2017-01-10T00:36:05.973Z,61.65
2017-01-10T00:36:46.539Z,61.93
2017-01-10T00:37:27.107Z,62.02
2017-01-10T00:38:07.662Z,61.65
2017-01-10T00:38:48.486Z,61.74
2017-01-10T00:39:29.022Z,61.74
2017-01-10T00:40:09.534Z,62.02
2017-01-10T00:40:50.102Z,62.02
2017-01-10T00:41:30.625Z,61.93
2017-01-10T00:42:11.168Z,61.83
2017-01-10T00:42:51.839Z,61.83
2017-01-10T00:43:32.277Z,61.93
2017-01-10T00:44:12.962Z,61.74
2017-01-10T00:44:53.627Z,61.83
2017-01-10T00:45:34.785Z,60.98
2017-01-10T00:46:15.328Z,61.17
2017-01-10T00:46:55.858Z,61.08
2017-01-10T00:47:36.380Z,61.17
2017-01-10T00:48:16.951Z,61.08
2017-01-10T00:48:57.511Z,61.65
2017-01-10T00:49:38.199Z,62.02
2017-01-10T00:50:18.760Z,61.83
2017-01-10T00:50:59.480Z,61.83
2017-01-10T00:51:40.008Z,61.65
2017-01-10T00:52:20.512Z,62.02
2017-01-10T00:53:01.058Z,62.21
2017-01-10T00:53:41.641Z,62.31
2017-01-10T00:54:22.158Z,62.02
2017-01-10T00:55:02.697Z,62.4
2017-01-10T00:55:43.329Z,61.74
2017-01-10T00:56:24.001Z,62.02
2017-01-10T00:57:04.580Z,61.46
2017-01-10T00:57:45.041Z,61.93
2017-01-10T00:58:25.556Z,61.08
2017-01-10T00:59:06.110Z,61.46
2017-01-10T00:59:46.668Z,61.27
2017-01-10T01:00:27.181Z,61.27
2017-01-10T01:01:07.711Z,61.08
2017-01-10T01:01:48.233Z,61.08
2017-01-10T01:02:28.873Z,60.98
2017-01-10T01:03:09.495Z,60.98
2017-01-10T01:03:50.058Z,61.17
2017-01-10T01:04:30.591Z,61.08
2017-01-10T01:05:11.101Z,61.17
2017-01-10T01:05:51.662Z,61.74
2017-01-10T01:06:32.185Z,61.83
2017-01-10T01:07:12.728Z,62.02
2017-01-10T01:07:53.354Z,61.83
2017-01-10T01:08:34.163Z,61.83
2017-01-10T01:09:14.900Z,61.74
2017-01-10T01:09:55.516Z,62.12
2017-01-10T01:10:36.060Z,61.93
2017-01-10T01:11:16.548Z,62.21
2017-01-10T01:11:57.112Z,62.02
2017-01-10T01:12:37.679Z,62.02
2017-01-10T01:13:18.247Z,61.93
2017-01-10T01:13:58.748Z,62.21
2017-01-10T01:14:39.341Z,62.02
2017-01-10T01:15:20.367Z,61.93
2017-01-10T01:16:00.943Z,62.12
2017-01-10T01:16:41.481Z,61.93
2017-01-10T01:17:22.011Z,62.02
2017-01-10T01:18:02.531Z,61.93
2017-01-10T01:18:43.117Z,62.21
2017-01-10T01:19:23.657Z,62.31
2017-01-10T01:20:04.270Z,62.21
2017-01-10T01:20:45.089Z,62.21
2017-01-10T01:21:25.638Z,61.74
2017-01-10T01:22:06.239Z,61.93
2017-01-10T01:22:46.841Z,62.02
2017-01-10T01:23:27.396Z,61.93
2017-01-10T01:24:07.922Z,61.74
2017-01-10T01:24:48.477Z,61.93
2017-01-10T01:25:29.038Z,61.55
2017-01-10T01:26:09.633Z,61.65
2017-01-10T01:26:50.119Z,62.02
2017-01-10T01:27:30.818Z,61.01
2017-01-10T01:28:11.754Z,61.2
2017-01-10T01:28:52.308Z,61.08
2017-01-10T01:29:32.865Z,61.08
2017-01-10T01:30:13.353Z,61.17
2017-01-10T01:30:53.916Z,61.36
2017-01-10T01:31:34.415Z,61.3
2017-01-10T01:32:15.002Z,60.79
2017-01-10T01:32:55.530Z,60.98
2017-01-10T01:33:36.088Z,60.7
2017-01-10T01:34:16.793Z,61.17
2017-01-10T01:34:57.722Z,61.08
2017-01-10T01:35:38.768Z,61.17
2017-01-10T01:36:19.420Z,61.46
2017-01-10T01:36:59.990Z,61.65
2017-01-10T01:37:40.445Z,61.65
2017-01-10T01:38:21.191Z,61.68
2017-01-10T01:39:01.698Z,61.74
2017-01-10T01:39:42.317Z,61.74
2017-01-10T01:40:22.880Z,61.46
2017-01-10T01:41:03.429Z,61.46
2017-01-10T01:41:43.953Z,61.93
2017-01-10T01:42:24.482Z,61.46
2017-01-10T01:43:05.040Z,61.46
2017-01-10T01:43:45.544Z,61.2
2017-01-10T01:44:26.086Z,61.11
2017-01-10T01:45:06.831Z,60.7
2017-01-10T01:45:47.500Z,60.79
2017-01-10T01:46:28.095Z,61.17
2017-01-10T01:47:08.679Z,60.98
2017-01-10T01:47:49.176Z,60.98
2017-01-10T01:48:29.673Z,61.46
2017-01-10T01:49:10.157Z,61.3
2017-01-10T01:49:50.714Z,61.49
2017-01-10T01:50:31.479Z,61.46
2017-01-10T01:51:11.850Z,61.46
2017-01-10T01:51:52.621Z,61.55
2017-01-10T01:52:33.212Z,61.74
2017-01-10T01:53:13.736Z,61.3
2017-01-10T01:53:54.311Z,61.49
2017-01-10T01:54:34.839Z,61.49
2017-01-10T01:55:15.351Z,61.01
2017-01-10T01:55:55.912Z,60.92
2017-01-10T01:56:36.424Z,61.01
2017-01-10T01:57:16.928Z,60.98
2017-01-10T01:57:57.498Z,61.3
2017-01-10T01:58:38.031Z,61.39
2017-01-10T01:59:18.645Z,61.27
2017-01-10T01:59:59.145Z,61.3
2017-01-10T02:00:39.733Z,61.83
2017-01-10T02:01:20.232Z,61.83
2017-01-10T02:02:00.743Z,61.83
2017-01-10T02:02:44.120Z,61.49
2017-01-10T02:03:24.624Z,61.2
2017-01-10T02:04:05.191Z,61.49
2017-01-10T02:04:45.938Z,61.39
2017-01-10T02:05:26.417Z,61.2
2017-01-10T02:06:07.024Z,61.58
2017-01-10T02:06:47.578Z,61.58
2017-01-10T02:07:28.470Z,61.49
2017-01-10T02:08:09.234Z,61.96
2017-01-10T02:08:49.726Z,61.87
2017-01-10T02:09:30.216Z,61.87
2017-01-10T02:10:10.778Z,61.68
2017-01-10T02:10:51.258Z,61.74
2017-01-10T02:11:31.895Z,61.3
2017-01-10T02:12:12.385Z,61.46
2017-01-10T02:12:53.093Z,62.15
2017-01-10T02:13:33.830Z,61.49
2017-01-10T02:14:14.593Z,61.74
2017-01-10T02:14:55.227Z,61.46
2017-01-10T02:15:35.773Z,61.77
2017-01-10T02:16:19.854Z,61.74
2017-01-10T02:17:00.403Z,61.77
2017-01-10T02:17:40.933Z,61.77
2017-01-10T02:18:21.466Z,61.77
2017-01-10T02:19:02.038Z,61.77
2017-01-10T02:19:42.568Z,61.49
2017-01-10T02:20:23.076Z,61.96
2017-01-10T02:21:03.612Z,61.58
2017-01-10T02:21:44.148Z,61.68
2017-01-10T02:22:25.185Z,61.87
2017-01-10T02:23:05.922Z,61.77
2017-01-10T02:23:46.814Z,61.11
2017-01-10T02:24:27.522Z,60.92
2017-01-10T02:25:08.115Z,60.82
2017-01-10T02:25:48.747Z,60.63
2017-01-10T02:26:29.175Z,61.01
2017-01-10T02:27:09.664Z,60.92
2017-01-10T02:27:50.211Z,61.2
2017-01-10T02:28:30.706Z,61.2
2017-01-10T02:29:11.281Z,61.39
2017-01-10T02:29:51.811Z,61.58
2017-01-10T02:30:32.354Z,60.92
2017-01-10T02:31:12.904Z,60.82
2017-01-10T02:31:53.407Z,61.58
2017-01-10T02:32:33.924Z,60.92
2017-01-10T02:33:14.593Z,60.73
2017-01-10T02:33:55.070Z,60.53
2017-01-10T02:34:35.587Z,60.73
2017-01-10T02:35:16.137Z,61.01
2017-01-10T02:35:56.632Z,61.2
2017-01-10T02:36:37.164Z,61.11
2017-01-10T02:37:17.675Z,60.63
2017-01-10T02:37:58.219Z,60.44
2017-01-10T02:38:38.755Z,61.01
2017-01-10T02:39:19.343Z,61.11
2017-01-10T02:39:59.845Z,61.01
2017-01-10T02:40:40.412Z,60.82
2017-01-10T02:41:20.986Z,61.2
2017-01-10T02:42:01.448Z,61.49
2017-01-10T02:42:42.026Z,61.68
2017-01-10T02:43:22.535Z,61.39
2017-01-10T02:44:03.082Z,61.11
2017-01-10T02:44:43.583Z,61.39
2017-01-10T02:45:24.151Z,61.01
2017-01-10T02:46:04.667Z,61.2
2017-01-10T02:46:45.220Z,61.58
2017-01-10T02:47:25.765Z,61.49
2017-01-10T02:48:06.290Z,61.11
2017-01-10T02:48:46.872Z,61.2
2017-01-10T02:49:27.403Z,60.98
2017-01-10T02:50:07.969Z,61.01
2017-01-10T02:50:48.525Z,61.3
2017-01-10T02:51:29.029Z,61.49
2017-01-10T02:52:09.792Z,61.49
2017-01-10T02:52:50.365Z,61.96
2017-01-10T02:53:30.853Z,61.77
2017-01-10T02:54:11.419Z,61.68
2017-01-10T02:54:51.993Z,61.68
2017-01-10T02:55:32.507Z,62.24
2017-01-10T02:56:13.041Z,62.05
2017-01-10T02:56:53.573Z,62.15
2017-01-10T02:57:34.070Z,62.15
2017-01-10T02:58:14.802Z,61.58
2017-01-10T02:58:55.347Z,61.96
2017-01-10T02:59:35.969Z,61.2
2017-01-10T03:00:16.558Z,61.01
2017-01-10T03:00:57.172Z,61.11
2017-01-10T03:01:37.682Z,61.01
2017-01-10T03:02:18.239Z,61.39
2017-01-10T03:02:58.744Z,61.2
2017-01-10T03:03:39.323Z,60.73
2017-01-10T03:04:19.881Z,61.01
2017-01-10T03:05:00.424Z,60.82
2017-01-10T03:05:41.010Z,61.01
2017-01-10T03:06:21.467Z,61.01
2017-01-10T03:07:01.985Z,60.73
2017-01-10T03:07:42.559Z,61.2
2017-01-10T03:08:23.139Z,61.2
2017-01-10T03:09:03.652Z,61.11
2017-01-10T03:09:44.166Z,61.11
2017-01-10T03:10:24.756Z,60.92
2017-01-10T03:11:05.412Z,61.11
2017-01-10T03:11:45.879Z,61.11
2017-01-10T03:12:26.407Z,60.82
2017-01-10T03:13:06.934Z,61.11
2017-01-10T03:13:47.480Z,60.82
2017-01-10T03:14:27.990Z,60.82
2017-01-10T03:15:08.532Z,60.92
2017-01-10T03:15:49.054Z,60.82
2017-01-10T03:16:29.814Z,60.06
2017-01-10T03:17:10.329Z,60.06
2017-01-10T03:17:50.880Z,61.11
2017-01-10T03:18:31.368Z,60.73
2017-01-10T03:19:11.921Z,60.92
2017-01-10T03:19:52.467Z,60.53
2017-01-10T03:20:32.996Z,60.82
2017-01-10T03:21:13.580Z,60.63
2017-01-10T03:21:54.084Z,60.73
2017-01-10T03:22:34.721Z,61.11
2017-01-10T03:23:15.392Z,60.73
2017-01-10T03:23:55.834Z,60.92
2017-01-10T03:24:36.323Z,60.82
2017-01-10T03:25:16.843Z,61.2
2017-01-10T03:25:57.394Z,60.92
2017-01-10T03:26:37.899Z,61.01
2017-01-10T03:27:18.470Z,61.2
2017-01-10T03:27:59.097Z,61.01
2017-01-10T03:28:39.616Z,61.11
2017-01-10T03:29:20.131Z,61.11
2017-01-10T03:30:00.712Z,61.01
2017-01-10T03:30:41.249Z,60.73
2017-01-10T03:31:21.744Z,60.13
2017-01-10T03:32:02.263Z,60.82
2017-01-10T03:32:42.782Z,61.01
2017-01-10T03:33:23.407Z,60.92
2017-01-10T03:34:03.906Z,60.73
2017-01-10T03:34:44.402Z,61.01
2017-01-10T03:35:24.981Z,61.01
2017-01-10T03:36:05.663Z,61.08
2017-01-10T03:36:46.087Z,61.2
2017-01-10T03:37:26.617Z,60.92
2017-01-10T03:38:07.133Z,61.3
2017-01-10T03:38:47.702Z,61.39
2017-01-10T03:39:28.251Z,60.82
2017-01-10T03:40:08.736Z,60.82
2017-01-10T03:40:49.325Z,60.35
2017-01-10T03:41:29.803Z,60.16
2017-01-10T03:42:10.333Z,60.63
2017-01-10T03:42:50.890Z,60.82
2017-01-10T03:43:31.433Z,60.92
2017-01-10T03:44:12.015Z,60.89
2017-01-10T03:44:52.538Z,61.27
2017-01-10T03:45:33.093Z,61.01
2017-01-10T03:46:13.610Z,60.82
2017-01-10T03:46:54.147Z,60.92
2017-01-10T03:47:34.737Z,60.73
2017-01-10T03:48:15.284Z,60.82
2017-01-10T03:48:55.787Z,60.92
2017-01-10T03:49:36.354Z,60.92
2017-01-10T03:50:16.905Z,60.82
2017-01-10T03:50:57.476Z,60.82
2017-01-10T03:51:38.004Z,60.82
2017-01-10T03:52:18.529Z,60.92
2017-01-10T03:52:59.065Z,60.82
2017-01-10T03:53:39.656Z,60.63
2017-01-10T03:54:20.202Z,61.11
2017-01-10T03:55:00.827Z,61.2
2017-01-10T03:55:41.306Z,60.53
2017-01-10T03:56:21.867Z,61.01
2017-01-10T03:57:02.406Z,61.11
2017-01-10T03:57:42.940Z,61.2
2017-01-10T03:58:23.474Z,61.11
2017-01-10T03:59:03.973Z,61.58
2017-01-10T03:59:44.516Z,61.27
2017-01-10T04:00:25.145Z,61.74
2017-01-10T04:01:06.741Z,61.77
2017-01-10T04:01:47.218Z,61.77
2017-01-10T04:02:27.764Z,61.74
2017-01-10T04:03:08.333Z,62.31
2017-01-10T04:03:48.839Z,61.74
2017-01-10T04:04:29.349Z,61.93
2017-01-10T04:05:09.877Z,62.12
2017-01-10T04:05:50.467Z,62.4
2017-01-10T04:06:31.020Z,62.4
2017-01-10T04:07:11.525Z,62.4
2017-01-10T04:07:52.040Z,62.31
2017-01-10T04:08:32.578Z,62.21
2017-01-10T04:09:13.147Z,62.31
2017-01-10T04:09:53.723Z,62.69
2017-01-10T04:10:34.277Z,62.88
2017-01-10T04:11:14.828Z,62.59
2017-01-10T04:11:55.483Z,62.97
2017-01-10T04:12:35.997Z,62.97
2017-01-10T04:13:16.472Z,62.88
2017-01-10T04:13:57.015Z,62.88
2017-01-10T04:14:37.570Z,62.88
2017-01-10T04:15:18.094Z,63.17
2017-01-10T04:15:58.601Z,63.45
2017-01-10T04:16:39.171Z,63.45
2017-01-10T04:17:19.708Z,63.26
2017-01-10T04:18:00.259Z,63.54
2017-01-10T04:18:40.798Z,63.45
2017-01-10T04:19:21.377Z,63.07
2017-01-10T04:20:01.875Z,63.45
2017-01-10T04:20:42.412Z,63.45
2017-01-10T04:21:23.009Z,63.45
2017-01-10T04:22:03.494Z,63.26
2017-01-10T04:22:44.065Z,63.64
2017-01-10T04:23:24.580Z,63.48
2017-01-10T04:24:05.138Z,63.48
2017-01-10T04:24:45.770Z,62.97
2017-01-10T04:25:26.385Z,62.88
2017-01-10T04:26:06.917Z,62.97
2017-01-10T04:26:47.488Z,63.45
2017-01-10T04:27:27.998Z,63.45
2017-01-10T04:28:08.575Z,63.45
2017-01-10T04:28:49.110Z,63.26
2017-01-10T04:29:29.593Z,63.35
2017-01-10T04:30:10.182Z,63.35
2017-01-10T04:30:50.722Z,63.39
2017-01-10T04:31:31.372Z,63.35
2017-01-10T04:32:11.913Z,63.73
2017-01-10T04:32:52.432Z,63.17
2017-01-10T04:33:32.997Z,63.92
2017-01-10T04:34:13.535Z,63.82
2017-01-10T04:34:54.053Z,63.82
2017-01-10T04:35:34.615Z,63.92
2017-01-10T04:36:15.152Z,63.57
2017-01-10T04:36:55.697Z,64.01
2017-01-10T04:37:36.344Z,63.54
2017-01-10T04:38:16.870Z,63.92
2017-01-10T04:38:57.401Z,64.49
2017-01-10T04:39:37.932Z,64.01
2017-01-10T04:40:18.474Z,64.78
2017-01-10T04:40:59.074Z,64.78
2017-01-10T04:41:39.587Z,64.49
2017-01-10T04:42:20.129Z,64.4
2017-01-10T04:43:00.718Z,64.78
2017-01-10T04:43:41.241Z,65.63
2017-01-10T04:44:21.764Z,64.97
2017-01-10T04:45:02.323Z,66.1
2017-01-10T04:45:42.849Z,65.91
2017-01-10T04:46:23.408Z,65.63
2017-01-10T04:47:03.950Z,65.82
2017-01-10T04:47:44.480Z,65.34
2017-01-10T04:48:25.003Z,66.1
2017-01-10T04:49:05.546Z,66.01
2017-01-10T04:49:46.066Z,65.53
2017-01-10T04:50:26.592Z,65.53
2017-01-10T04:51:07.187Z,65.91
2017-01-10T04:51:47.695Z,65.72
2017-01-10T04:52:28.234Z,66.1
2017-01-10T04:53:08.786Z,66.2
2017-01-10T04:53:49.293Z,66.67
2017-01-10T04:54:29.846Z,66.14
2017-01-10T04:55:10.401Z,66.2
2017-01-10T04:55:50.925Z,66.29
2017-01-10T04:56:31.495Z,66.77
2017-01-10T04:57:11.981Z,66.96
2017-01-10T04:57:52.557Z,66.96
2017-01-10T04:58:33.156Z,67.43
2017-01-10T04:59:13.838Z,67.14
2017-01-10T04:59:54.372Z,67.14
2017-01-10T05:00:34.999Z,67.14
2017-01-10T05:01:15.524Z,67.24
2017-01-10T05:01:56.112Z,67.62
2017-01-10T05:02:36.644Z,67.52
2017-01-10T05:03:17.161Z,67.52
2017-01-10T05:03:57.715Z,68.1
2017-01-10T05:04:38.230Z,68.1
2017-01-10T05:05:18.758Z,68.19
2017-01-10T05:05:59.306Z,68.76
2017-01-10T05:06:39.846Z,69.13
2017-01-10T05:07:20.400Z,69.33
2017-01-10T05:08:00.944Z,69.33
2017-01-10T05:08:41.479Z,69.42
2017-01-10T05:09:21.985Z,68.95
2017-01-10T05:10:02.481Z,69.61
2017-01-10T05:10:43.061Z,69.42
2017-01-10T05:11:23.608Z,69.99
2017-01-10T05:12:04.106Z,69.9
2017-01-10T05:12:44.616Z,69.71
2017-01-10T05:13:25.181Z,70.18
2017-01-10T05:14:05.706Z,70.18
2017-01-10T05:14:46.216Z,70.09
2017-01-10T05:15:26.765Z,70.37
2017-01-10T05:16:07.286Z,70.37
2017-01-10T05:16:47.834Z,70.37
2017-01-10T05:17:28.403Z,70.37
2017-01-10T05:18:08.922Z,70.65
2017-01-10T05:18:49.448Z,70.75
2017-01-10T05:19:30.023Z,71.03
2017-01-10T05:20:10.590Z,70.56
2017-01-10T05:20:51.199Z,70.37
2017-01-10T05:21:31.658Z,70.94
2017-01-10T05:22:12.196Z,70.75
2017-01-10T05:22:52.782Z,70.56
2017-01-10T05:23:33.271Z,70.94
2017-01-10T05:24:13.793Z,71.22
2017-01-10T05:24:54.370Z,70.37
2017-01-10T05:25:34.897Z,70.94
2017-01-10T05:26:15.399Z,71.03
2017-01-10T05:26:55.918Z,70.75
2017-01-10T05:27:36.463Z,70.75
2017-01-10T05:28:16.991Z,70.56
2017-01-10T05:28:57.536Z,71.51
2017-01-10T05:29:38.089Z,70.84
2017-01-10T05:30:18.621Z,70.37
2017-01-10T05:30:59.143Z,70.75
2017-01-10T05:31:39.667Z,70.75
2017-01-10T05:32:20.211Z,71.6
2017-01-10T05:33:00.785Z,71.51
2017-01-10T05:33:41.314Z,71.8
2017-01-10T05:34:21.838Z,71.51
2017-01-10T05:35:02.396Z,71.41
2017-01-10T05:35:42.901Z,71.7
2017-01-10T05:36:23.571Z,70.37
2017-01-10T05:37:04.088Z,70.47
2017-01-10T05:37:44.616Z,71.03
2017-01-10T05:38:25.107Z,71.6
2017-01-10T05:39:05.653Z,71.8
2017-01-10T05:39:46.159Z,71.41
2017-01-10T05:40:26.740Z,71.41
2017-01-10T05:41:07.252Z,71.6
2017-01-10T05:41:47.805Z,71.8
2017-01-10T05:42:28.315Z,71.41
2017-01-10T05:43:08.834Z,71.41
2017-01-10T05:43:49.358Z,71.51
2017-01-10T05:44:29.891Z,71.7
2017-01-10T05:45:10.388Z,71.41
2017-01-10T05:45:50.898Z,71.13
2017-01-10T05:46:31.423Z,71.22
2017-01-10T05:47:11.981Z,70.84
2017-01-10T05:47:52.501Z,71.7
2017-01-10T05:48:33.065Z,71.8
2017-01-10T05:49:13.594Z,71.41
2017-01-10T05:49:54.861Z,71.6
2017-01-10T05:50:35.444Z,71.8
2017-01-10T05:51:15.933Z,71.6
2017-01-10T05:51:56.431Z,71.51
2017-01-10T05:52:36.977Z,71.7
2017-01-10T05:53:17.536Z,70.94
2017-01-10T05:53:58.042Z,71.22
2017-01-10T05:54:38.550Z,70.75
2017-01-10T05:55:19.090Z,70.65
2017-01-10T05:55:59.657Z,70.75
2017-01-10T05:56:40.205Z,71.13
2017-01-10T05:57:20.749Z,70.28
2017-01-10T05:58:01.260Z,70.37
2017-01-10T05:58:41.801Z,70.37
2017-01-10T05:59:22.349Z,70.47
2017-01-10T06:00:02.863Z,70.84
2017-01-10T06:00:43.462Z,70.37
2017-01-10T06:01:23.913Z,70.47
2017-01-10T06:02:04.437Z,70.37
2017-01-10T06:02:44.995Z,70.75
2017-01-10T06:03:25.503Z,70.47
2017-01-10T06:04:06.042Z,70.37
2017-01-10T06:04:46.606Z,70.84
2017-01-10T06:05:27.179Z,70.37
2017-01-10T06:06:07.678Z,71.03
2017-01-10T06:06:48.222Z,71.22
2017-01-10T06:07:28.750Z,70.65
2017-01-10T06:08:09.273Z,70.75
2017-01-10T06:08:49.820Z,70.65
2017-01-10T06:09:30.381Z,70.47
2017-01-10T06:10:10.862Z,70.75
2017-01-10T06:10:51.379Z,70.56
2017-01-10T06:11:31.998Z,70.28
2017-01-10T06:12:12.520Z,71.32
2017-01-10T06:12:53.049Z,70.56
2017-01-10T06:13:33.599Z,70.65
2017-01-10T06:14:14.154Z,70.75
2017-01-10T06:14:54.712Z,70.75
2017-01-10T06:15:35.252Z,71.03
2017-01-10T06:16:15.792Z,71.7
2017-01-10T06:16:56.312Z,70.84
2017-01-10T06:17:36.860Z,70.94
2017-01-10T06:18:17.383Z,70.84
2017-01-10T06:18:57.895Z,70.75
2017-01-10T06:19:38.446Z,71.03
2017-01-10T06:20:19.006Z,71.03
2017-01-10T06:20:59.542Z,71.22
2017-01-10T06:21:40.086Z,71.7
2017-01-10T06:22:20.637Z,71.8
2017-01-10T06:23:01.210Z,71.6
2017-01-10T06:23:41.784Z,71.32
2017-01-10T06:24:22.265Z,71.98
2017-01-10T06:25:02.799Z,71.98
2017-01-10T06:25:43.306Z,73.41
2017-01-10T06:26:23.869Z,73.5
2017-01-10T06:27:04.380Z,73.22
2017-01-10T06:27:44.915Z,73.22
2017-01-10T06:28:25.450Z,73.41
2017-01-10T06:29:06.119Z,73.97
2017-01-10T06:29:46.650Z,74.07
2017-01-10T06:30:27.189Z,75.21
2017-01-10T06:31:07.728Z,76.25
2017-01-10T06:31:48.297Z,76.63
2017-01-10T06:32:28.894Z,76.92
2017-01-10T06:33:09.372Z,77.48
2017-01-10T06:33:49.925Z,77.58
2017-01-10T06:34:30.457Z,77.39
2017-01-10T06:35:11.026Z,76.92
2017-01-10T06:35:51.594Z,77.2
2017-01-10T06:36:32.134Z,76.15
2017-01-10T06:37:12.674Z,78.05
2017-01-10T06:37:53.252Z,80.24
2017-01-10T06:38:33.749Z,80.33
2017-01-10T06:39:14.273Z,78.62
2017-01-10T06:39:54.825Z,77.96
2017-01-10T06:40:35.372Z,77.96
2017-01-10T06:41:15.901Z,79.19
2017-01-10T06:41:56.451Z,79.19
2017-01-10T06:42:36.956Z,78.53
2017-01-10T06:43:17.496Z,76.44
2017-01-10T06:43:58.036Z,74.64
2017-01-10T06:44:38.571Z,73.41
2017-01-10T06:45:19.140Z,74.07
2017-01-10T06:45:59.631Z,80.52
2017-01-10T06:46:40.281Z,81.94
2017-01-10T06:47:20.777Z,81.66
2017-01-10T06:48:01.331Z,83.74
2017-01-10T06:48:41.899Z,85.17
2017-01-10T06:49:22.473Z,83.36
2017-01-10T06:50:02.974Z,80.43
2017-01-10T06:50:43.779Z,80.24
2017-01-10T06:51:24.224Z,78.72
2017-01-10T06:52:04.771Z,78.34
2017-01-10T06:52:45.281Z,78.05
2017-01-10T06:53:25.833Z,77.77
2017-01-10T06:54:06.384Z,77.77
2017-01-10T06:54:46.964Z,77.58
2017-01-10T06:55:27.535Z,77.77
2017-01-10T06:56:08.049Z,77.58
2017-01-10T06:56:48.592Z,77.2
2017-01-10T06:57:29.141Z,77.29
2017-01-10T06:58:09.682Z,77.29
2017-01-10T06:58:50.193Z,77.01
2017-01-10T06:59:30.756Z,77.58
2017-01-10T07:00:11.318Z,77.48
2017-01-10T07:00:51.857Z,77.58
2017-01-10T07:01:32.404Z,77.39
2017-01-10T07:02:12.977Z,76.25
2017-01-10T07:02:53.580Z,76.15
2017-01-10T07:03:34.132Z,74.54
2017-01-10T07:04:14.657Z,75.59
2017-01-10T07:04:55.184Z,76.25
2017-01-10T07:05:35.734Z,76.34
2017-01-10T07:06:16.279Z,77.48
2017-01-10T07:06:56.848Z,78.72
2017-01-10T07:07:37.377Z,79.66
2017-01-10T07:08:17.933Z,80.08
2017-01-10T07:08:58.460Z,80.08
2017-01-10T07:09:39.000Z,77.01
2017-01-10T07:10:19.564Z,75.49
2017-01-10T07:11:00.074Z,77.29
2017-01-10T07:11:40.610Z,80.8
2017-01-10T07:12:21.179Z,82.7
2017-01-10T07:13:01.685Z,83.78
2017-01-10T07:13:42.231Z,89
2017-01-10T07:14:22.751Z,91.19
2017-01-10T07:15:03.294Z,91.28
2017-01-10T07:15:43.864Z,92.9
2017-01-10T07:16:24.406Z,94.32
2017-01-10T07:17:04.922Z,93.75
2017-01-10T07:17:45.510Z,94.7
2017-01-10T07:18:26.061Z,95.36
2017-01-10T07:19:06.627Z,95.74
2017-01-10T07:19:47.113Z,96.22
2017-01-10T07:20:27.632Z,96.03
2017-01-10T07:21:08.189Z,94.89
2017-01-10T07:21:48.786Z,94.7
2017-01-10T07:22:29.324Z,93.75
2017-01-10T07:23:09.821Z,91.09
2017-01-10T07:23:50.355Z,88.91
2017-01-10T07:24:30.916Z,88.24
2017-01-10T07:25:11.502Z,87.11
2017-01-10T07:25:52.016Z,85.3
2017-01-10T07:26:32.571Z,82.84
2017-01-10T07:27:13.119Z,86.44
2017-01-10T07:27:53.659Z,89.58
2017-01-10T07:28:34.191Z,91.38
2017-01-10T07:29:14.734Z,93.56
2017-01-10T07:29:55.269Z,93.18
2017-01-10T07:30:35.815Z,89.86
2017-01-10T07:31:16.325Z,90.43
2017-01-10T07:31:56.914Z,89.86
2017-01-10T07:32:37.441Z,89.58
2017-01-10T07:33:17.980Z,91
2017-01-10T07:33:58.541Z,89.29
2017-01-10T07:34:39.079Z,89.39
2017-01-10T07:35:19.640Z,87.77
2017-01-10T07:36:00.146Z,85.97
2017-01-10T07:36:40.667Z,85.02
2017-01-10T07:37:21.256Z,83.69
2017-01-10T07:38:01.739Z,82.65
2017-01-10T07:38:42.307Z,82.74
2017-01-10T07:39:22.829Z,81.98
2017-01-10T07:40:03.327Z,78.95
2017-01-10T07:40:43.863Z,78
2017-01-10T07:41:24.399Z,77.33
2017-01-10T07:42:04.950Z,76.76
2017-01-10T07:42:45.493Z,76.39
2017-01-10T07:43:26.087Z,77.9
2017-01-10T07:44:06.570Z,78.19
2017-01-10T07:44:47.094Z,78.95
2017-01-10T07:45:27.613Z,78.47
2017-01-10T07:47:41.507Z,77.9
2017-01-10T07:48:21.721Z,77.62
2017-01-10T07:49:02.243Z,77.9
2017-01-10T07:49:42.775Z,76.67
2017-01-10T07:50:23.293Z,75.53
2017-01-10T07:51:03.868Z,75.53
2017-01-10T07:51:44.416Z,76.86
2017-01-10T07:52:24.904Z,77.71
2017-01-10T07:53:05.415Z,78.85
2017-01-10T07:53:45.972Z,80.75
2017-01-10T07:54:26.522Z,80.65
2017-01-10T07:55:07.190Z,81.51
2017-01-10T07:55:47.754Z,83.22
2017-01-10T07:56:28.330Z,83.69
2017-01-10T07:57:08.735Z,84.64
2017-01-10T07:57:49.292Z,84.45
2017-01-10T07:58:29.818Z,83.97
2017-01-10T07:59:10.370Z,84.36
2017-01-10T07:59:50.927Z,82.46
2017-01-10T08:00:31.450Z,88.72
2017-01-10T08:01:12.001Z,93.56
2017-01-10T08:01:52.525Z,92.71
2017-01-10T08:02:33.071Z,93.65
2017-01-10T08:03:13.665Z,87.58
2017-01-10T08:03:54.236Z,89
2017-01-10T08:04:34.746Z,92.61
2017-01-10T08:05:15.372Z,93.08
2017-01-10T08:05:55.864Z,88.34
2017-01-10T08:06:36.403Z,87.39
2017-01-10T08:07:16.919Z,91.75
2017-01-10T08:07:57.466Z,94.13
2017-01-10T08:08:38.029Z,94.13
2017-01-10T08:09:18.597Z,89.58
2017-01-10T08:09:59.078Z,86.16
2017-01-10T08:10:39.598Z,84.83
2017-01-10T08:11:20.100Z,83.97
2017-01-10T08:12:00.646Z,82.74
2017-01-10T08:12:41.219Z,83.69
2017-01-10T08:13:21.753Z,90.09
2017-01-10T08:14:02.273Z,93.23
2017-01-10T08:14:42.809Z,93.7
2017-01-10T08:15:23.350Z,95.51
2017-01-10T08:16:03.883Z,95.79
2017-01-10T08:16:44.419Z,91.24
2017-01-10T08:17:24.958Z,86.82
2017-01-10T08:18:05.477Z,84.26
2017-01-10T08:18:45.974Z,89.29
2017-01-10T08:19:26.547Z,90.33
2017-01-10T08:20:07.091Z,92.33
2017-01-10T08:20:47.622Z,90.43
2017-01-10T08:21:28.196Z,87.96
2017-01-10T08:22:08.694Z,85.11
2017-01-10T08:22:49.270Z,83.78
2017-01-10T08:23:29.762Z,81.88
2017-01-10T08:24:10.286Z,79.74
2017-01-10T08:24:50.834Z,80.65
2017-01-10T08:25:31.372Z,81.32
2017-01-10T08:26:11.922Z,81.88
2017-01-10T08:26:52.458Z,83.5
2017-01-10T08:27:32.993Z,80.84
2017-01-10T08:28:13.492Z,79.42
2017-01-10T08:28:54.033Z,79.42
2017-01-10T08:29:34.570Z,78.38
2017-01-10T08:30:15.108Z,76.95
2017-01-10T08:30:55.661Z,75.47
2017-01-10T08:31:36.142Z,76.32
2017-01-10T08:32:16.696Z,80.03
2017-01-10T08:32:57.211Z,87.43
2017-01-10T08:33:37.763Z,90.09
2017-01-10T08:34:18.303Z,88.91
2017-01-10T08:34:58.818Z,86.91
2017-01-10T08:35:39.334Z,86.91
2017-01-10T08:36:19.840Z,90.43
2017-01-10T08:37:00.368Z,88.81
2017-01-10T08:37:40.953Z,89.81
2017-01-10T08:38:21.477Z,88.86
2017-01-10T08:39:02.027Z,85.63
2017-01-10T08:39:42.573Z,83.16
2017-01-10T08:40:23.193Z,81.74
2017-01-10T08:41:03.785Z,81.36
2017-01-10T08:41:44.326Z,80.41
2017-01-10T08:42:24.982Z,78.32
2017-01-10T08:43:05.465Z,78.8
2017-01-10T08:43:46.019Z,78.42
2017-01-10T08:44:26.529Z,76.32
2017-01-10T08:45:07.065Z,77.84
2017-01-10T08:45:47.622Z,79.36